Wed, 28 Jul 2021 19:10:11 UTC

Information for RPM brotli-1.0.7-10.fc32.ppc64le.rpm

ID20169797
Namebrotli
Version1.0.7
Release10.fc32
Epoch
Archppc64le
SummaryLossless compression algorithm
DescriptionBrotli is a generic-purpose lossless compression algorithm that compresses data using a combination of a modern variant of the LZ77 algorithm, Huffman coding and 2nd order context modeling, with a compression ratio comparable to the best currently available general-purpose compression methods. It is similar in speed with deflate but offers more dense compression.
Build Time2020-01-28 13:23:28 GMT
Size368,880
010b8a547ff940b5bbfd82c8670509de
LicenseMIT
Buildrootf32-build-19252434-1345396
Provides
brotli = 1.0.7-10.fc32
brotli(ppc-64) = 1.0.7-10.fc32
Obsoletes No Obsoletes
Conflicts No Conflicts
Requires
libbrotli(ppc-64) = 1.0.7-10.fc32
libc.so.6()(64bit)
libc.so.6(GLIBC_2.17)(64bit)
libm.so.6()(64bit)
libm.so.6(GLIBC_2.29)(64bit)
rpmlib(CompressedFileNames) <= 3.0.4-1
rpmlib(FileDigests) <= 4.6.0-1
rpmlib(PayloadFilesHavePrefix) <= 4.0-1
rpmlib(PayloadIsZstd) <= 5.4.18-1
rtld(GNU_HASH)
Recommends No Recommends
Suggests No Suggests
Supplements No Supplements
Enhances No Enhances
Files
1 through 4 of 4
Name ascending sort Size
/usr/bin/brotli858,920
/usr/lib/.build-id0
/usr/lib/.build-id/000
/usr/lib/.build-id/00/8969e3cf77ce4eaef70bb87919bf59a70cdc0426
Component of
Page:
1 through 50 of 9174 >>>
Buildroot descending sort Created State
f32-build-23397153-2264779 2020-10-16 20:45:47 expired
f32-build-23394088-2264676 2020-10-16 14:40:46 expired
f32-build-23394068-2264676 2020-10-16 14:40:06 expired
f32-build-23394043-2264676 2020-10-16 14:37:38 expired
f32-build-23393854-2264210 2020-10-16 14:30:24 expired
f32-build-23390119-2263422 2020-10-16 10:29:03 expired
f32-build-23388513-2261574 2020-10-16 07:28:57 expired
f32-build-23382364-2261574 2020-10-16 01:02:43 expired
f32-build-23381368-2260800 2020-10-15 23:44:16 expired
f32-build-23378759-2259636 2020-10-15 20:15:18 expired
f32-build-23366654-2255071 2020-10-15 01:12:12 expired
f32-build-23356849-2250372 2020-10-14 12:37:04 expired
f32-build-23354164-2249337 2020-10-14 07:54:46 expired
f32-build-23354052-2249337 2020-10-14 07:42:43 expired
f32-build-23354036-2249337 2020-10-14 07:42:23 expired
f32-build-23353460-2249337 2020-10-14 06:57:00 expired
f32-build-23353453-2249337 2020-10-14 06:56:59 expired
f32-build-23345842-2245938 2020-10-13 18:51:47 expired
f32-build-23343305-2244618 2020-10-13 16:02:43 expired
f32-build-23342543-2244618 2020-10-13 15:02:24 expired
f32-build-23342411-2244618 2020-10-13 14:51:48 expired
f32-build-23338903-2243855 2020-10-13 11:33:57 expired
f32-build-23338896-2243855 2020-10-13 11:33:56 expired
f32-build-23338895-2243855 2020-10-13 11:33:56 expired
f32-build-23338892-2243855 2020-10-13 11:33:56 expired
f32-build-23338885-2243855 2020-10-13 11:33:35 expired
f32-build-23334417-2241654 2020-10-13 07:13:54 expired
f32-build-23334399-2241654 2020-10-13 07:13:31 expired
f32-build-23334398-2241654 2020-10-13 07:13:29 expired
f32-build-23331970-2241654 2020-10-13 05:58:44 expired
f32-build-23321386-2238080 2020-10-12 18:49:00 expired
f32-build-23318447-2237457 2020-10-12 14:48:35 expired
f32-build-23317612-2237457 2020-10-12 13:53:59 expired
f32-build-23314888-2235679 2020-10-12 10:33:24 expired
f32-build-23314564-2235679 2020-10-12 10:16:29 expired
f32-build-23309881-2235101 2020-10-12 06:16:27 expired
f32-build-23309868-2235101 2020-10-12 06:16:08 expired
f32-build-23309862-2235101 2020-10-12 06:16:07 expired
f32-build-23309512-2235101 2020-10-12 05:56:16 expired
f32-build-23309317-2235101 2020-10-12 05:50:40 expired
f32-build-23307394-2235101 2020-10-12 04:32:42 expired
f32-build-23305424-2234600 2020-10-12 03:02:31 expired
f32-build-23305331-2234600 2020-10-12 02:59:27 expired
f32-build-23299662-2234433 2020-10-11 23:45:21 expired
f32-build-23297840-2233319 2020-10-11 22:12:31 expired
f32-build-23297832-2233319 2020-10-11 22:12:14 expired
f32-build-23297825-2233319 2020-10-11 22:11:55 expired
f32-build-23296329-2233319 2020-10-11 21:15:14 expired
f32-build-23295378-2233319 2020-10-11 20:30:32 expired
f32-build-23295373-2233319 2020-10-11 20:30:31 expired